^^
Saratoga-Weather Station Historical Data
Daily Summary for August 19, 2020 Units:  English    Metric   Both
Daily Weekly Monthly Yearly Custom
  High: Low: Average:
Temperature: 59 °F 57 °F 57.7 °F
Dew Point: 57.9 °F 55.9 °F 56.8 °F
Humidity: 97% 96% 96%
Wind Speed: 0mph 0mph 0mph
Wind Gust: 0mph - -
Wind- -
Pressure: 29.9 in 29.9 in -
Precipitation: 0 in    
Historical Graphs
 
 
Tabular Data for August 19, 2020
Time Temperature Dew Point Pressure Wind Wind Speed Wind Gust Humidity Rainfall Rate (Hourly) solar
00:04 59 °F 57.9 °F 29.9 in Calm     96% 0 in 0 W/m2
00:09 58.8 °F 57.7 °F 29.9 in Calm     96% 0 in 0 W/m2
00:14 58.8 °F 57.7 °F 29.9 in Calm     96% 0 in 0 W/m2
00:19 58.6 °F 57.6 °F 29.9 in Calm     96% 0 in 0 W/m2
00:24 58.6 °F 57.6 °F 29.9 in Calm     96% 0 in 0 W/m2
00:29 58.5 °F 57.4 °F 29.9 in Calm     96% 0 in 0 W/m2
00:34 58.3 °F 57.2 °F 29.9 in Calm     96% 0 in 0 W/m2
00:39 58.3 °F 57.2 °F 29.9 in Calm     96% 0 in 0 W/m2
00:44 58.3 °F 57.2 °F 29.9 in Calm     96% 0 in 0 W/m2
00:49 58.3 °F 57.2 °F 29.9 in Calm     96% 0 in 0 W/m2
00:54 58.1 °F 57 °F 29.9 in Calm     96% 0 in 0 W/m2
00:59 57.9 °F 56.8 °F 29.9 in Calm     96% 0 in 0 W/m2
01:04 57.9 °F 56.8 °F 29.9 in Calm     96% 0 in 0 W/m2
01:09 57.9 °F 56.8 °F 29.9 in Calm     96% 0 in 0 W/m2
01:14 57.9 °F 56.8 °F 29.9 in Calm     96% 0 in 0 W/m2
01:19 57.7 °F 56.7 °F 29.9 in Calm     96% 0 in 0 W/m2
01:24 57.7 °F 56.7 °F 29.9 in Calm     96% 0 in 0 W/m2
01:29 57.7 °F 56.7 °F 29.9 in Calm     96% 0 in 0 W/m2
01:34 57.6 °F 56.5 °F 29.9 in Calm     96% 0 in 0 W/m2
01:39 57.7 °F 56.7 °F 29.9 in Calm     96% 0 in 0 W/m2
01:44 57.7 °F 56.7 °F 29.9 in Calm     96% 0 in 0 W/m2
01:49 57.7 °F 56.7 °F 29.9 in Calm     96% 0 in 0 W/m2
01:55 57.6 °F 56.5 °F 29.9 in Calm     96% 0 in 0 W/m2
02:00 57.6 °F 56.5 °F 29.9 in Calm     96% 0 in 0 W/m2
02:05 57.6 °F 56.5 °F 29.9 in Calm     96% 0 in 0 W/m2
02:10 57.4 °F 56.3 °F 29.9 in Calm     96% 0 in 0 W/m2
02:15 57.4 °F 56.3 °F 29.9 in Calm     96% 0 in 0 W/m2
02:20 57.4 °F 56.3 °F 29.9 in Calm     96% 0 in 0 W/m2
02:25 57.4 °F 56.3 °F 29.9 in Calm     96% 0 in 0 W/m2
02:30 57.4 °F 56.3 °F 29.9 in Calm     96% 0 in 0 W/m2
02:35 57.2 °F 56.1 °F 29.9 in Calm     96% 0 in 0 W/m2
02:40 57 °F 55.9 °F 29.9 in Calm     96% 0 in 0 W/m2
02:45 57.2 °F 56.3 °F 29.9 in Calm     97% 0 in 0 W/m2
02:50 57.4 °F 56.5 °F 29.9 in Calm     97% 0 in 0 W/m2
02:55 57.4 °F 56.5 °F 29.9 in Calm     97% 0 in 0 W/m2
03:00 57.4 °F 56.5 °F 29.9 in Calm     97% 0 in 0 W/m2
03:05 57.6 °F 56.7 °F 29.9 in Calm     97% 0 in 0 W/m2
03:10 57.6 °F 56.7 °F 29.9 in Calm     97% 0 in 0 W/m2
03:15 57.6 °F 56.7 °F 29.9 in Calm     97% 0 in 0 W/m2
03:20 57.7 °F 56.8 °F 29.9 in Calm     97% 0 in 0 W/m2
03:25 57.6 °F 56.7 °F 29.9 in Calm     97% 0 in 0 W/m2
03:30 57.6 °F 56.7 °F 29.9 in Calm     97% 0 in 0 W/m2
Juneau County Weather
Compliments of Weather Underground - 2 mb